createdAt,value
2019-02-15T00:00:21.636Z,0.10
2019-02-15T00:01:21.624Z,0.20
2019-02-15T00:02:21.614Z,0.20
2019-02-15T00:03:21.605Z,0.10
2019-02-15T00:04:21.593Z,0.10
2019-02-15T00:05:21.584Z,0.10
2019-02-15T00:06:21.571Z,0.10
2019-02-15T00:07:21.572Z,0.10
2019-02-15T00:08:21.553Z,0.10
2019-02-15T00:09:21.591Z,0.20
2019-02-15T00:10:21.531Z,0.10
2019-02-15T00:11:21.527Z,0.20
2019-02-15T00:12:21.509Z,0.10
2019-02-15T00:13:21.521Z,0.10
2019-02-15T00:14:21.490Z,0.20
2019-02-15T00:15:21.482Z,0.10
2019-02-15T00:16:21.470Z,0.10
2019-02-15T00:17:21.451Z,0.20
2019-02-15T00:18:21.450Z,0.10
2019-02-15T00:19:21.457Z,0.10
2019-02-15T00:20:21.427Z,0.20
2019-02-15T00:21:21.419Z,0.20
2019-02-15T00:22:21.406Z,0.10
2019-02-15T00:23:21.387Z,0.20
2019-02-15T00:24:21.387Z,0.20
2019-02-15T00:25:21.380Z,0.20
2019-02-15T00:26:21.369Z,0.10
2019-02-15T00:27:21.355Z,0.10
2019-02-15T00:28:21.344Z,0.20
2019-02-15T00:29:21.325Z,0.20
2019-02-15T00:30:21.324Z,0.20
2019-02-15T00:31:21.311Z,0.10
2019-02-15T00:32:21.303Z,0.10
2019-02-15T00:33:21.294Z,0.20
2019-02-15T00:34:21.283Z,0.10
2019-02-15T00:35:21.263Z,0.10
2019-02-15T00:36:21.262Z,0.10
2019-02-15T00:37:21.263Z,0.20
2019-02-15T00:38:21.243Z,0.10
2019-02-15T00:39:21.229Z,0.10
2019-02-15T00:40:21.219Z,0.20
2019-02-15T00:41:21.210Z,0.10
2019-02-15T00:42:21.200Z,0.10
2019-02-15T00:43:22.542Z,0.20
2019-02-15T00:44:21.177Z,0.20
2019-02-15T00:45:21.175Z,0.10
2019-02-15T00:46:21.160Z,0.10
2019-02-15T00:47:21.147Z,0.20
2019-02-15T00:48:21.135Z,0.10
2019-02-15T00:49:21.125Z,0.10
2019-02-15T00:50:21.116Z,0.20
2019-02-15T00:51:21.105Z,0.10
2019-02-15T00:52:21.108Z,0.20
2019-02-15T00:53:21.114Z,0.00
2019-02-15T00:54:21.073Z,0.10
2019-02-15T00:55:21.061Z,0.10
2019-02-15T00:56:21.050Z,0.20
2019-02-15T00:57:21.041Z,0.10
2019-02-15T00:58:21.032Z,0.20
2019-02-15T00:59:21.075Z,0.10
2019-02-15T01:00:21.015Z,0.10
2019-02-15T01:01:20.999Z,0.20
2019-02-15T01:02:20.995Z,0.10
2019-02-15T01:03:20.976Z,0.10
2019-02-15T01:04:20.966Z,0.20
2019-02-15T01:05:20.955Z,0.10
2019-02-15T01:06:20.947Z,0.10
2019-02-15T01:07:20.947Z,0.20
2019-02-15T01:08:20.924Z,0.10
2019-02-15T01:09:20.913Z,0.20
2019-02-15T01:10:20.924Z,0.10
2019-02-15T01:11:20.902Z,0.10
2019-02-15T01:12:20.889Z,0.10
2019-02-15T01:13:20.893Z,0.10
2019-02-15T01:14:20.876Z,0.20
2019-02-15T01:15:20.853Z,0.20
2019-02-15T01:16:20.839Z,0.10
2019-02-15T01:17:20.830Z,0.10
2019-02-15T01:18:20.820Z,0.10
2019-02-15T01:19:20.807Z,0.20
2019-02-15T01:20:20.796Z,0.10
2019-02-15T01:21:20.786Z,0.10
2019-02-15T01:22:20.773Z,0.10
2019-02-15T01:23:20.764Z,0.10
2019-02-15T01:24:20.753Z,0.20
2019-02-15T01:25:20.741Z,0.10
2019-02-15T01:26:20.735Z,0.20
2019-02-15T01:27:20.721Z,0.20
2019-02-15T01:28:20.700Z,0.10
2019-02-15T01:29:20.699Z,0.10
2019-02-15T01:30:20.694Z,0.20
2019-02-15T01:31:20.681Z,0.10
2019-02-15T01:32:20.668Z,0.20
2019-02-15T01:33:20.656Z,0.10
2019-02-15T01:34:20.645Z,0.10
2019-02-15T01:35:20.633Z,0.20
2019-02-15T01:36:20.651Z,0.10
2019-02-15T01:37:20.610Z,0.10
2019-02-15T01:38:20.607Z,0.10
2019-02-15T01:39:20.594Z,0.10
2019-02-15T01:40:20.580Z,0.20
2019-02-15T01:41:20.575Z,0.10
2019-02-15T01:42:20.560Z,0.10
2019-02-15T01:43:20.546Z,0.20
2019-02-15T01:44:20.537Z,0.10
2019-02-15T01:45:20.520Z,0.10
2019-02-15T01:46:20.516Z,0.20
2019-02-15T01:47:20.503Z,0.10
2019-02-15T01:48:20.493Z,0.10
2019-02-15T01:49:20.530Z,0.10
2019-02-15T01:50:20.473Z,0.10
2019-02-15T01:51:20.464Z,0.20
2019-02-15T01:52:20.455Z,0.10
2019-02-15T01:53:20.445Z,0.20
2019-02-15T01:54:20.431Z,0.10
2019-02-15T01:55:20.415Z,0.10
2019-02-15T01:56:20.405Z,0.10
2019-02-15T01:57:20.395Z,0.10
2019-02-15T01:58:20.385Z,0.10
2019-02-15T01:59:20.374Z,0.20
2019-02-15T02:00:20.362Z,0.10
2019-02-15T02:01:20.353Z,0.10
2019-02-15T02:02:20.341Z,0.10
2019-02-15T02:03:20.326Z,0.20
2019-02-15T02:04:20.317Z,0.20
2019-02-15T02:05:20.318Z,0.10
2019-02-15T02:06:20.296Z,0.10
2019-02-15T02:07:20.284Z,0.10
2019-02-15T02:08:20.276Z,0.10
2019-02-15T02:09:20.256Z,0.10
2019-02-15T02:10:20.252Z,0.10
2019-02-15T02:11:20.263Z,0.10
2019-02-15T02:12:20.230Z,0.20
2019-02-15T02:13:20.219Z,0.20
2019-02-15T02:14:20.207Z,0.10
2019-02-15T02:15:20.190Z,0.10
2019-02-15T02:16:20.183Z,0.10
2019-02-15T02:17:20.177Z,0.20
2019-02-15T02:18:20.187Z,0.10
2019-02-15T02:19:20.150Z,0.10
2019-02-15T02:20:20.131Z,0.20
2019-02-15T02:21:20.127Z,0.10
2019-02-15T02:22:20.136Z,0.20
2019-02-15T02:23:20.111Z,0.10
2019-02-15T02:24:20.094Z,0.10
2019-02-15T02:25:20.084Z,0.10
2019-02-15T02:26:20.073Z,0.10
2019-02-15T02:27:20.063Z,0.10
2019-02-15T02:28:20.073Z,0.10
2019-02-15T02:29:20.042Z,0.10
2019-02-15T02:30:20.024Z,0.20
2019-02-15T02:31:20.017Z,0.10
2019-02-15T02:32:20.025Z,0.10
2019-02-15T02:33:19.987Z,0.10
2019-02-15T02:34:19.985Z,0.10
2019-02-15T02:35:19.973Z,0.10
2019-02-15T02:36:19.961Z,0.20
2019-02-15T02:37:19.938Z,0.10
2019-02-15T02:38:19.949Z,0.20
2019-02-15T02:39:20.033Z,0.20
2019-02-15T02:40:19.919Z,0.10
2019-02-15T02:41:19.907Z,0.10
2019-02-15T02:42:19.901Z,0.10
2019-02-15T02:43:19.880Z,0.20
2019-02-15T02:44:19.869Z,0.10
2019-02-15T02:45:19.860Z,0.20
2019-02-15T02:46:19.849Z,0.10
2019-02-15T02:47:19.835Z,0.10
2019-02-15T02:48:19.814Z,0.10
2019-02-15T02:49:19.812Z,0.10
2019-02-15T02:50:19.793Z,0.10
2019-02-15T02:51:19.798Z,0.10
2019-02-15T02:52:19.788Z,0.10
2019-02-15T02:53:19.768Z,0.10
2019-02-15T02:54:19.749Z,0.10
2019-02-15T02:55:19.741Z,0.10
2019-02-15T02:56:19.730Z,0.10
2019-02-15T02:57:19.725Z,0.10
2019-02-15T02:58:19.731Z,0.10
2019-02-15T02:59:19.698Z,0.10
2019-02-15T03:00:19.687Z,0.20
2019-02-15T03:01:19.674Z,0.10
2019-02-15T03:02:19.681Z,0.10
2019-02-15T03:03:19.653Z,0.10
2019-02-15T03:04:19.641Z,0.10
2019-02-15T03:05:19.658Z,0.20
2019-02-15T03:06:19.609Z,0.10
2019-02-15T03:07:19.606Z,0.20
2019-02-15T03:08:19.595Z,0.10
2019-02-15T03:09:19.584Z,0.20
2019-02-15T03:10:19.574Z,0.10
2019-02-15T03:11:19.554Z,0.20
2019-02-15T03:12:19.550Z,0.10
2019-02-15T03:13:19.558Z,0.10
2019-02-15T03:14:19.536Z,0.10
2019-02-15T03:15:19.516Z,0.10
2019-02-15T03:16:19.509Z,0.10
2019-02-15T03:17:19.492Z,0.20
2019-02-15T03:18:19.483Z,0.10
2019-02-15T03:19:19.483Z,0.20
2019-02-15T03:20:30.544Z,0.10
2019-02-15T03:21:19.542Z,0.10
2019-02-15T03:22:19.438Z,0.10
2019-02-15T03:23:19.421Z,0.10
2019-02-15T03:24:19.418Z,0.10
2019-02-15T03:25:19.401Z,0.10
2019-02-15T03:26:19.390Z,0.20
2019-02-15T03:27:19.379Z,0.10
2019-02-15T03:28:19.373Z,0.10
2019-02-15T03:29:19.354Z,0.20
2019-02-15T03:30:19.987Z,0.10
2019-02-15T03:31:19.335Z,0.20
2019-02-15T03:32:19.322Z,0.10
2019-02-15T03:33:19.324Z,0.10
2019-02-15T03:34:19.294Z,0.20
2019-02-15T03:35:19.293Z,0.10
2019-02-15T03:36:19.276Z,0.10
2019-02-15T03:37:19.264Z,0.10
2019-02-15T03:38:19.256Z,0.10
2019-02-15T03:39:19.232Z,0.20
2019-02-15T03:40:19.231Z,0.10
2019-02-15T03:41:19.215Z,0.20
2019-02-15T03:42:19.208Z,0.10
2019-02-15T03:43:19.216Z,0.10
2019-02-15T03:44:22.297Z,0.20
2019-02-15T03:45:19.165Z,0.10
2019-02-15T03:46:19.164Z,0.20
2019-02-15T03:47:19.157Z,0.10
2019-02-15T03:48:19.138Z,0.10
2019-02-15T03:49:19.146Z,0.20
2019-02-15T03:50:19.114Z,0.10
2019-02-15T03:51:19.100Z,0.10
2019-02-15T03:52:19.093Z,0.20
2019-02-15T03:53:19.088Z,0.10
2019-02-15T03:54:19.079Z,0.10
2019-02-15T03:55:19.058Z,0.20
2019-02-15T03:56:19.047Z,0.20
2019-02-15T03:57:19.036Z,0.10
2019-02-15T03:58:19.028Z,0.10
2019-02-15T03:59:19.012Z,0.10
2019-02-15T04:00:19.001Z,0.10
2019-02-15T04:01:18.995Z,0.20
2019-02-15T04:02:18.981Z,0.10
2019-02-15T04:03:18.966Z,0.10
2019-02-15T04:04:18.970Z,0.20
2019-02-15T04:05:18.964Z,0.10
2019-02-15T04:06:18.968Z,0.10
2019-02-15T04:07:18.930Z,0.10
2019-02-15T04:08:18.912Z,0.20
2019-02-15T04:09:18.912Z,0.20
2019-02-15T04:10:18.887Z,0.10
2019-02-15T04:11:18.876Z,0.20
2019-02-15T04:12:18.867Z,0.10
2019-02-15T04:13:18.868Z,0.20
2019-02-15T04:14:18.841Z,0.20
2019-02-15T04:15:18.828Z,0.10
2019-02-15T04:16:18.818Z,0.10
2019-02-15T04:17:18.807Z,0.10
2019-02-15T04:18:18.802Z,0.10
2019-02-15T04:19:18.778Z,0.10
2019-02-15T04:20:18.771Z,0.10
2019-02-15T04:21:18.762Z,0.10
2019-02-15T04:22:18.750Z,0.10
2019-02-15T04:23:18.740Z,0.10
2019-02-15T04:24:18.723Z,0.10
2019-02-15T04:25:18.713Z,0.10
2019-02-15T04:26:18.704Z,0.10
2019-02-15T04:27:18.694Z,0.10
2019-02-15T04:28:18.704Z,0.10
2019-02-15T04:29:18.672Z,0.10
2019-02-15T04:30:18.662Z,0.20
2019-02-15T04:31:18.662Z,0.10
2019-02-15T04:32:18.637Z,0.20
2019-02-15T04:33:18.623Z,0.10
2019-02-15T04:34:18.612Z,0.20
2019-02-15T04:35:18.599Z,0.10
2019-02-15T04:36:18.590Z,0.20
2019-02-15T04:37:18.611Z,0.20
2019-02-15T04:38:18.565Z,0.10
2019-02-15T04:39:18.553Z,0.10
2019-02-15T04:40:18.542Z,0.20
2019-02-15T04:41:18.532Z,0.10
2019-02-15T04:42:18.518Z,0.20
2019-02-15T04:43:18.509Z,0.10
2019-02-15T04:44:18.501Z,0.10
2019-02-15T04:45:18.486Z,0.20
2019-02-15T04:46:18.477Z,0.10
2019-02-15T04:47:18.456Z,0.10
2019-02-15T04:48:18.444Z,0.10
2019-02-15T04:49:18.458Z,0.10
2019-02-15T04:50:18.428Z,0.20
2019-02-15T04:51:18.458Z,0.10
2019-02-15T04:52:18.406Z,0.10
2019-02-15T04:53:18.389Z,0.10
2019-02-15T04:54:18.381Z,0.10
2019-02-15T04:55:18.371Z,0.10
2019-02-15T04:56:18.369Z,0.10
2019-02-15T04:57:18.347Z,0.20
2019-02-15T04:58:18.339Z,0.10
2019-02-15T04:59:18.323Z,0.10
2019-02-15T05:00:18.317Z,0.20
2019-02-15T05:01:18.301Z,0.20
2019-02-15T05:02:18.289Z,0.10
2019-02-15T05:03:19.514Z,0.20
2019-02-15T05:04:18.265Z,0.20
2019-02-15T05:05:18.256Z,0.10
2019-02-15T05:06:18.268Z,0.10
2019-02-15T05:07:18.230Z,0.10
2019-02-15T05:08:18.218Z,0.10
2019-02-15T05:09:18.205Z,0.10
2019-02-15T05:10:18.244Z,0.10
2019-02-15T05:11:18.185Z,0.10
2019-02-15T05:12:18.175Z,0.10
2019-02-15T05:13:18.161Z,0.10
2019-02-15T05:14:18.148Z,0.20
2019-02-15T05:15:18.138Z,0.10
2019-02-15T05:16:18.126Z,0.10
2019-02-15T05:17:18.114Z,0.20
2019-02-15T05:18:18.106Z,0.20
2019-02-15T05:19:18.092Z,0.20
2019-02-15T05:20:18.079Z,0.20
2019-02-15T05:21:18.069Z,0.10
2019-02-15T05:22:18.057Z,0.20
2019-02-15T05:23:18.043Z,0.10
2019-02-15T05:24:18.030Z,0.10
2019-02-15T05:25:18.024Z,0.10
2019-02-15T05:26:18.006Z,0.10
2019-02-15T05:27:17.999Z,0.10
2019-02-15T05:28:17.987Z,0.10
2019-02-15T05:29:17.975Z,0.10
2019-02-15T05:30:17.962Z,0.20
2019-02-15T05:31:17.946Z,0.10
2019-02-15T05:32:17.937Z,0.00
2019-02-15T05:33:17.931Z,0.10
2019-02-15T05:34:17.916Z,0.20
2019-02-15T05:35:17.929Z,0.10
2019-02-15T05:36:17.898Z,0.10
2019-02-15T05:37:17.882Z,0.10
2019-02-15T05:38:17.870Z,0.10
2019-02-15T05:39:17.882Z,0.10
2019-02-15T05:40:17.846Z,0.10
2019-02-15T05:41:17.848Z,0.10
2019-02-15T05:42:17.825Z,0.10
2019-02-15T05:43:17.807Z,0.10
2019-02-15T05:44:17.801Z,0.20
2019-02-15T05:45:17.789Z,0.10
2019-02-15T05:46:17.776Z,0.10
2019-02-15T05:47:17.763Z,0.10
2019-02-15T05:48:17.752Z,0.10
2019-02-15T05:49:17.740Z,0.10
2019-02-15T05:50:17.741Z,0.20
2019-02-15T05:51:17.726Z,0.10
2019-02-15T05:52:17.748Z,0.10
2019-02-15T05:53:17.702Z,0.20
2019-02-15T05:54:17.685Z,0.20
2019-02-15T05:55:17.679Z,0.20
2019-02-15T05:56:17.660Z,0.20
2019-02-15T05:57:17.647Z,0.10
2019-02-15T05:58:17.635Z,0.20
2019-02-15T05:59:17.617Z,0.20
2019-02-15T06:00:17.619Z,0.10
2019-02-15T06:01:17.602Z,0.10
2019-02-15T06:02:17.588Z,0.20
2019-02-15T06:03:17.584Z,0.20
2019-02-15T06:04:17.571Z,0.10
2019-02-15T06:05:17.550Z,0.10
2019-02-15T06:06:17.541Z,0.10
2019-02-15T06:07:17.528Z,0.10
2019-02-15T06:08:17.517Z,0.10
2019-02-15T06:09:17.507Z,0.10
2019-02-15T06:10:17.497Z,0.10
2019-02-15T06:11:17.479Z,0.10
2019-02-15T06:12:17.472Z,0.10
2019-02-15T06:13:17.459Z,0.10
2019-02-15T06:14:17.445Z,0.10
2019-02-15T06:15:17.432Z,0.10
2019-02-15T06:16:17.417Z,0.10
2019-02-15T06:17:17.404Z,0.10
2019-02-15T06:18:17.431Z,0.10
2019-02-15T06:19:17.387Z,0.10
2019-02-15T06:20:17.379Z,0.10
2019-02-15T06:21:17.354Z,0.10
2019-02-15T06:22:17.359Z,0.10
2019-02-15T06:23:17.338Z,0.10
2019-02-15T06:24:17.329Z,0.10
2019-02-15T06:25:17.317Z,0.10
2019-02-15T06:26:17.306Z,0.10
2019-02-15T06:27:17.293Z,0.10
2019-02-15T06:28:17.285Z,0.10
2019-02-15T06:29:17.270Z,0.10
2019-02-15T06:30:17.253Z,0.10
2019-02-15T06:31:17.245Z,0.10
2019-02-15T06:32:17.235Z,0.10
2019-02-15T06:33:17.226Z,0.10
2019-02-15T06:34:17.209Z,0.10
2019-02-15T06:35:17.205Z,0.10
2019-02-15T06:36:17.187Z,0.20
2019-02-15T06:37:17.177Z,0.20
2019-02-15T06:38:17.162Z,0.20
2019-02-15T06:39:17.150Z,0.20
2019-02-15T06:40:17.139Z,0.10
2019-02-15T06:41:17.128Z,0.20
2019-02-15T06:42:17.121Z,0.20
2019-02-15T06:43:17.095Z,0.20
2019-02-15T06:44:17.094Z,0.20
2019-02-15T06:45:24.214Z,0.20
2019-02-15T06:46:17.088Z,0.20
2019-02-15T06:47:17.070Z,0.20
2019-02-15T06:48:17.060Z,0.30
2019-02-15T06:49:17.032Z,0.30
2019-02-15T06:50:17.029Z,0.20
2019-02-15T06:51:17.031Z,0.20
2019-02-15T06:52:17.008Z,0.20
2019-02-15T06:53:17.000Z,0.20
2019-02-15T06:54:16.986Z,0.30
2019-02-15T06:55:16.972Z,0.30
2019-02-15T06:56:16.966Z,0.30
2019-02-15T06:57:16.965Z,0.20
2019-02-15T06:58:16.945Z,0.20
2019-02-15T06:59:16.932Z,0.30
2019-02-15T07:00:16.938Z,0.20
2019-02-15T07:01:16.913Z,0.20
2019-02-15T07:02:16.906Z,0.30
2019-02-15T07:03:16.891Z,0.30
2019-02-15T07:04:16.883Z,0.20
2019-02-15T07:05:16.876Z,0.30
2019-02-15T07:06:16.860Z,0.20
2019-02-15T07:07:17.328Z,0.30
2019-02-15T07:08:16.844Z,0.20
2019-02-15T07:09:16.877Z,0.30
2019-02-15T07:10:16.845Z,0.40
2019-02-15T07:11:16.820Z,0.30
2019-02-15T07:12:16.812Z,0.30
2019-02-15T07:13:16.810Z,0.30
2019-02-15T07:14:16.798Z,0.40
2019-02-15T07:15:16.784Z,0.30
2019-02-15T07:16:16.779Z,0.30
2019-02-15T07:17:16.775Z,0.40
2019-02-15T07:18:16.767Z,0.30
2019-02-15T07:19:16.757Z,0.40
2019-02-15T07:20:16.753Z,0.50
2019-02-15T07:21:16.730Z,0.40
2019-02-15T07:22:16.733Z,0.40
2019-02-15T07:23:16.725Z,0.40
2019-02-15T07:24:16.719Z,0.30
2019-02-15T07:25:16.715Z,0.30
2019-02-15T07:26:16.725Z,0.40
2019-02-15T07:27:16.699Z,0.40
2019-02-15T07:28:16.695Z,0.40
2019-02-15T07:29:16.687Z,0.30
2019-02-15T07:30:16.679Z,0.50
2019-02-15T07:31:16.688Z,0.50
2019-02-15T07:32:16.658Z,0.50
2019-02-15T07:33:16.665Z,0.50
2019-02-15T07:34:16.656Z,0.40
2019-02-15T07:35:16.649Z,0.40
2019-02-15T07:36:16.641Z,0.40
2019-02-15T07:37:16.640Z,0.50
2019-02-15T07:38:16.633Z,0.50
2019-02-15T07:39:16.627Z,0.50
2019-02-15T07:40:16.624Z,0.50
2019-02-15T07:41:16.615Z,0.50
2019-02-15T07:42:16.630Z,0.50
2019-02-15T07:43:16.604Z,0.50
2019-02-15T07:44:16.600Z,0.50
2019-02-15T07:45:17.877Z,0.50
2019-02-15T07:46:16.599Z,0.60
2019-02-15T07:47:16.589Z,0.50
2019-02-15T07:48:16.579Z,0.50
2019-02-15T07:49:16.577Z,0.50
2019-02-15T07:50:16.573Z,0.50
2019-02-15T07:51:16.566Z,0.50
2019-02-15T07:52:16.562Z,0.50
2019-02-15T07:53:16.557Z,0.50
2019-02-15T07:54:16.553Z,0.40
2019-02-15T07:55:16.541Z,0.50
2019-02-15T07:56:16.540Z,0.50
2019-02-15T07:57:16.541Z,0.40
2019-02-15T07:58:16.538Z,0.40
2019-02-15T07:59:16.533Z,0.40
2019-02-15T08:00:16.530Z,0.40
2019-02-15T08:01:16.527Z,0.40
2019-02-15T08:02:16.528Z,0.40
2019-02-15T08:03:16.519Z,0.40
2019-02-15T08:04:16.523Z,0.60
2019-02-15T08:05:16.516Z,0.40
2019-02-15T08:06:16.510Z,0.60
2019-02-15T08:07:16.519Z,0.50
2019-02-15T08:08:16.504Z,0.50
2019-02-15T08:09:16.501Z,0.50
2019-02-15T08:10:16.497Z,0.50
2019-02-15T08:11:16.498Z,0.50
2019-02-15T08:12:16.498Z,0.60
2019-02-15T08:13:16.491Z,0.50
2019-02-15T08:14:17.702Z,0.50
2019-02-15T08:15:16.487Z,0.50
2019-02-15T08:16:16.485Z,0.60
2019-02-15T08:17:16.481Z,0.60
2019-02-15T08:18:16.485Z,0.50
2019-02-15T08:19:16.499Z,0.50
2019-02-15T08:20:16.477Z,0.60
2019-02-15T08:21:16.477Z,0.50
2019-02-15T08:22:16.472Z,0.50
2019-02-15T08:23:16.474Z,0.50
2019-02-15T08:24:16.472Z,0.60
2019-02-15T08:25:16.472Z,0.50
2019-02-15T08:26:16.469Z,0.50
2019-02-15T08:27:16.466Z,0.40
2019-02-15T08:28:16.463Z,0.50
2019-02-15T08:29:16.465Z,0.50
2019-02-15T08:30:16.467Z,0.40
2019-02-15T08:31:16.476Z,0.50
2019-02-15T08:32:16.467Z,0.50
2019-02-15T08:33:16.469Z,0.50
2019-02-15T08:34:16.469Z,0.40
2019-02-15T08:35:16.472Z,0.40
2019-02-15T08:36:16.456Z,0.50
2019-02-15T08:37:16.469Z,0.50
2019-02-15T08:38:16.468Z,0.40
2019-02-15T08:39:16.468Z,0.40
2019-02-15T08:40:16.471Z,0.50
2019-02-15T08:41:16.471Z,0.50
2019-02-15T08:42:16.471Z,0.50
2019-02-15T08:43:16.483Z,0.40
2019-02-15T08:44:16.468Z,0.40
2019-02-15T08:45:16.470Z,0.50
2019-02-15T08:46:16.474Z,0.50
2019-02-15T08:47:16.471Z,0.60
2019-02-15T08:48:16.474Z,0.60
2019-02-15T08:49:16.480Z,0.50
2019-02-15T08:50:16.474Z,0.60
2019-02-15T08:51:16.474Z,0.60
2019-02-15T08:52:16.476Z,0.40
2019-02-15T08:53:16.483Z,0.60
2019-02-15T08:54:16.479Z,0.60
2019-02-15T08:55:16.477Z,0.60
2019-02-15T08:56:16.479Z,0.60
2019-02-15T08:57:16.486Z,0.50
2019-02-15T08:58:16.479Z,0.50
2019-02-15T08:59:16.490Z,0.50
2019-02-15T09:00:16.480Z,0.50
2019-02-15T09:01:16.482Z,0.60
2019-02-15T09:02:16.492Z,0.60
2019-02-15T09:03:16.486Z,0.60
2019-02-15T09:04:16.478Z,0.70
2019-02-15T09:05:16.488Z,0.70
2019-02-15T09:06:16.493Z,0.50
2019-02-15T09:07:16.487Z,0.60
2019-02-15T09:08:16.493Z,0.80
2019-02-15T09:09:16.488Z,0.60
2019-02-15T09:10:16.489Z,0.70
2019-02-15T09:11:16.491Z,0.60
2019-02-15T09:12:16.494Z,0.60
2019-02-15T09:13:16.529Z,0.70
2019-02-15T09:14:16.481Z,0.80
2019-02-15T09:15:16.492Z,0.70
2019-02-15T09:16:16.491Z,0.60
2019-02-15T09:17:16.490Z,0.80
2019-02-15T09:18:16.492Z,0.80
2019-02-15T09:19:16.497Z,0.70
2019-02-15T09:20:16.497Z,0.70
2019-02-15T09:21:16.500Z,0.70
2019-02-15T09:22:16.499Z,0.80
2019-02-15T09:23:16.509Z,0.90
2019-02-15T09:24:16.492Z,0.80
2019-02-15T09:25:16.506Z,0.70
2019-02-15T09:26:18.427Z,0.80
2019-02-15T09:27:16.508Z,0.70
2019-02-15T09:28:16.514Z,0.90
2019-02-15T09:29:16.510Z,0.80
2019-02-15T09:30:16.513Z,0.90
2019-02-15T09:31:16.515Z,0.90
2019-02-15T09:32:16.515Z,0.90
2019-02-15T09:33:16.522Z,1.00
2019-02-15T09:34:16.529Z,0.80
2019-02-15T09:35:16.516Z,0.90
2019-02-15T09:36:16.534Z,0.90
2019-02-15T09:37:16.531Z,0.80
2019-02-15T09:38:16.526Z,0.90
2019-02-15T09:39:16.531Z,0.90
2019-02-15T09:40:16.536Z,0.90
2019-02-15T09:41:16.550Z,1.00
2019-02-15T09:42:16.560Z,1.00
2019-02-15T09:43:16.543Z,1.10
2019-02-15T09:44:16.557Z,1.10
2019-02-15T09:45:16.568Z,1.10
2019-02-15T09:46:19.953Z,1.10
2019-02-15T09:47:16.553Z,1.20
2019-02-15T09:48:16.556Z,1.10
2019-02-15T09:49:16.562Z,1.00
2019-02-15T09:50:16.563Z,1.20
2019-02-15T09:51:16.568Z,1.10
2019-02-15T09:52:16.567Z,1.10
2019-02-15T09:53:16.583Z,1.10
2019-02-15T09:54:16.577Z,1.20
2019-02-15T09:55:16.579Z,1.20
2019-02-15T09:56:16.582Z,1.20
2019-02-15T09:57:16.583Z,1.20
2019-02-15T09:58:16.647Z,1.10
2019-02-15T09:59:16.591Z,1.20
2019-02-15T10:00:16.604Z,1.30
2019-02-15T10:01:16.598Z,1.20
2019-02-15T10:02:16.596Z,1.30
2019-02-15T10:03:16.610Z,1.30
2019-02-15T10:04:16.609Z,1.20
2019-02-15T10:05:16.608Z,1.30
2019-02-15T10:06:16.618Z,1.40
2019-02-15T10:07:16.624Z,1.40
2019-02-15T10:08:16.623Z,1.40
2019-02-15T10:09:16.627Z,1.40
2019-02-15T10:10:16.640Z,1.40
2019-02-15T10:11:16.633Z,1.40
2019-02-15T10:12:16.642Z,1.30
2019-02-15T10:13:16.645Z,1.60
2019-02-15T10:14:16.650Z,1.40
2019-02-15T10:15:16.655Z,1.40
2019-02-15T10:16:16.660Z,1.50
2019-02-15T10:17:16.666Z,1.50
2019-02-15T10:18:16.669Z,1.60
2019-02-15T10:19:22.415Z,1.50
2019-02-15T10:20:16.675Z,1.50
2019-02-15T10:21:16.680Z,1.60
2019-02-15T10:22:16.684Z,1.60
2019-02-15T10:23:16.689Z,1.60
2019-02-15T10:24:16.696Z,1.70
2019-02-15T10:25:16.698Z,1.70
2019-02-15T10:26:16.706Z,1.80
2019-02-15T10:27:16.706Z,1.80
2019-02-15T10:28:16.715Z,1.70
2019-02-15T10:29:16.717Z,1.70
2019-02-15T10:30:16.723Z,1.80
2019-02-15T10:31:16.743Z,1.80
2019-02-15T10:32:16.731Z,1.70
2019-02-15T10:33:16.735Z,2.00
2019-02-15T10:34:16.733Z,2.00
2019-02-15T10:35:16.749Z,1.80
2019-02-15T10:36:18.827Z,1.80
2019-02-15T10:37:16.759Z,1.80
2019-02-15T10:38:16.761Z,1.70
2019-02-15T10:39:16.768Z,2.00
2019-02-15T10:40:16.770Z,1.90
2019-02-15T10:41:16.777Z,1.90
2019-02-15T10:42:16.782Z,2.10
2019-02-15T10:43:16.774Z,1.90
2019-02-15T10:44:16.784Z,1.80
2019-02-15T10:45:16.794Z,1.80
2019-02-15T10:46:16.789Z,2.00
2019-02-15T10:47:24.663Z,2.00
2019-02-15T10:48:16.808Z,2.00
2019-02-15T10:49:16.813Z,2.20
2019-02-15T10:50:16.820Z,2.20
2019-02-15T10:51:16.826Z,2.00
2019-02-15T10:52:16.826Z,2.20
2019-02-15T10:53:16.840Z,2.20
2019-02-15T10:54:16.836Z,2.10
2019-02-15T10:55:16.839Z,2.10
2019-02-15T10:56:16.846Z,2.20
2019-02-15T10:57:16.852Z,2.10
2019-02-15T10:58:16.857Z,2.10
2019-02-15T10:59:16.898Z,2.20
2019-02-15T11:00:16.888Z,2.20
2019-02-15T11:01:16.874Z,2.10
2019-02-15T11:02:16.889Z,2.20
2019-02-15T11:03:16.886Z,2.30
2019-02-15T11:04:16.885Z,2.20
2019-02-15T11:05:16.897Z,2.30
2019-02-15T11:06:16.902Z,2.20
2019-02-15T11:07:16.906Z,2.30
2019-02-15T11:08:16.930Z,2.20
2019-02-15T11:09:16.914Z,2.20
2019-02-15T11:10:16.919Z,2.00
2019-02-15T11:11:16.926Z,2.20
2019-02-15T11:12:16.931Z,2.00
2019-02-15T11:13:16.935Z,2.10
2019-02-15T11:14:16.957Z,2.10
2019-02-15T11:15:16.947Z,2.00
2019-02-15T11:16:16.951Z,2.00
2019-02-15T11:17:16.958Z,2.10
2019-02-15T11:18:16.962Z,2.10
2019-02-15T11:19:16.966Z,2.10
2019-02-15T11:20:16.972Z,2.00
2019-02-15T11:21:16.985Z,2.20
2019-02-15T11:22:16.983Z,2.10
2019-02-15T11:23:16.989Z,2.00
2019-02-15T11:24:16.987Z,2.00
2019-02-15T11:25:17.000Z,2.00
2019-02-15T11:26:24.597Z,2.00
2019-02-15T11:27:17.006Z,2.00
2019-02-15T11:28:17.015Z,1.90
2019-02-15T11:29:17.034Z,1.80
2019-02-15T11:30:17.024Z,1.80
2019-02-15T11:31:17.169Z,1.80
2019-02-15T11:32:17.029Z,1.80
2019-02-15T11:33:17.037Z,1.90
2019-02-15T11:34:17.042Z,1.90
2019-02-15T11:35:17.046Z,2.00
2019-02-15T11:36:17.053Z,1.80
2019-02-15T11:37:17.058Z,1.90
2019-02-15T11:38:17.062Z,1.80
2019-02-15T11:39:17.065Z,1.90
2019-02-15T11:40:17.071Z,1.70
2019-02-15T11:41:17.078Z,2.00
2019-02-15T11:42:17.088Z,1.80
2019-02-15T11:43:17.083Z,1.70
2019-02-15T11:44:17.092Z,1.60
2019-02-15T11:45:17.097Z,1.70
2019-02-15T11:46:17.102Z,1.50
2019-02-15T11:47:17.105Z,1.80
2019-02-15T11:48:17.111Z,1.50
2019-02-15T11:49:17.113Z,1.50
2019-02-15T11:50:17.121Z,1.50
2019-02-15T11:51:17.118Z,1.60
2019-02-15T11:52:17.125Z,1.50
2019-02-15T11:53:17.138Z,1.50
2019-02-15T11:54:23.334Z,1.40
2019-02-15T11:55:17.145Z,1.40
2019-02-15T11:56:17.152Z,1.40
2019-02-15T11:57:17.157Z,1.40
2019-02-15T11:58:17.161Z,1.20
2019-02-15T11:59:17.166Z,1.30
2019-02-15T12:00:18.417Z,1.20
2019-02-15T12:01:17.181Z,1.20
2019-02-15T12:02:17.181Z,1.30
2019-02-15T12:03:17.196Z,1.20
2019-02-15T12:04:17.190Z,1.20
2019-02-15T12:05:17.200Z,1.10
2019-02-15T12:06:17.203Z,1.20
2019-02-15T12:07:17.209Z,1.20
2019-02-15T12:08:17.211Z,1.10
2019-02-15T12:09:17.216Z,1.20
2019-02-15T12:10:17.237Z,1.00
2019-02-15T12:11:17.225Z,1.00
2019-02-15T12:12:17.231Z,1.00
2019-02-15T12:13:17.242Z,0.90
2019-02-15T12:14:17.239Z,1.00
2019-02-15T12:15:17.246Z,0.80
2019-02-15T12:16:17.252Z,0.90
2019-02-15T12:17:17.257Z,0.80
2019-02-15T12:18:17.260Z,0.80
2019-02-15T12:19:17.275Z,0.90
2019-02-15T12:20:17.271Z,0.80
2019-02-15T12:21:17.273Z,0.80
2019-02-15T12:22:17.278Z,0.80
2019-02-15T12:23:17.285Z,0.90
2019-02-15T12:24:17.288Z,0.70
2019-02-15T12:25:17.308Z,0.80
2019-02-15T12:26:17.299Z,0.70
2019-02-15T12:27:17.302Z,0.80
2019-02-15T12:28:17.306Z,0.80
2019-02-15T12:29:17.308Z,0.70
2019-02-15T12:30:17.313Z,0.80
2019-02-15T12:31:17.315Z,0.70
2019-02-15T12:32:17.321Z,0.80
2019-02-15T12:33:17.328Z,0.70
2019-02-15T12:34:17.318Z,0.60
2019-02-15T12:35:17.330Z,0.70
2019-02-15T12:36:17.336Z,0.60
2019-02-15T12:37:17.339Z,0.70
2019-02-15T12:38:17.336Z,0.60
2019-02-15T12:39:17.340Z,0.70
2019-02-15T12:40:17.350Z,0.60
2019-02-15T12:41:17.351Z,0.60
2019-02-15T12:42:17.356Z,0.50
2019-02-15T12:43:17.364Z,0.60
2019-02-15T12:44:17.367Z,0.70
2019-02-15T12:45:17.372Z,0.60
2019-02-15T12:46:17.381Z,0.50
2019-02-15T12:47:17.422Z,0.70
2019-02-15T12:48:17.375Z,0.50
2019-02-15T12:49:17.403Z,0.50
2019-02-15T12:50:17.381Z,0.50
2019-02-15T12:51:17.385Z,0.60
2019-02-15T12:52:17.386Z,0.40
2019-02-15T12:53:17.388Z,0.20
2019-02-15T12:54:17.390Z,0.10
2019-02-15T12:55:17.388Z,0.20
2019-02-15T12:56:17.388Z,0.10
2019-02-15T12:57:17.396Z,0.10
2019-02-15T12:58:17.378Z,0.10
2019-02-15T12:59:17.385Z,0.20
2019-02-15T13:00:17.381Z,0.20
2019-02-15T13:01:17.381Z,0.20
2019-02-15T13:02:17.384Z,0.20
2019-02-15T13:03:17.375Z,0.20
2019-02-15T13:04:17.374Z,0.20
2019-02-15T13:05:17.372Z,0.20
2019-02-15T13:06:17.376Z,0.10
2019-02-15T13:07:17.366Z,0.20
2019-02-15T13:08:17.364Z,0.20
2019-02-15T13:09:17.361Z,0.30
2019-02-15T13:10:17.358Z,0.20
2019-02-15T13:11:17.354Z,0.20
2019-02-15T13:12:17.351Z,0.20
2019-02-15T13:13:17.347Z,0.20
2019-02-15T13:14:17.348Z,0.20
2019-02-15T13:15:17.341Z,0.20
2019-02-15T13:16:17.335Z,0.20
2019-02-15T13:17:24.486Z,0.20
2019-02-15T13:18:17.321Z,0.30